sensor_id;sensor_type;location;lat;lon;timestamp;P1;durP1;ratioP1;P2;durP2;ratioP2
75167;SDS011;73507;52.510;13.420;2024-01-15T00:00:25;15.63;;;9.05;;
75167;SDS011;73507;52.510;13.420;2024-01-15T00:02:51;6.20;;;3.45;;
75167;SDS011;73507;52.510;13.420;2024-01-15T00:05:17;14.02;;;9.02;;
75167;SDS011;73507;52.510;13.420;2024-01-15T00:07:44;13.90;;;8.43;;
75167;SDS011;73507;52.510;13.420;2024-01-15T00:10:10;14.38;;;9.05;;
75167;SDS011;73507;52.510;13.420;2024-01-15T00:12:36;15.25;;;7.95;;
75167;SDS011;73507;52.510;13.420;2024-01-15T00:15:02;12.15;;;7.50;;
75167;SDS011;73507;52.510;13.420;2024-01-15T00:17:29;13.13;;;7.53;;
75167;SDS011;73507;52.510;13.420;2024-01-15T00:19:56;17.13;;;9.85;;
75167;SDS011;73507;52.510;13.420;2024-01-15T00:22:25;14.88;;;7.85;;
75167;SDS011;73507;52.510;13.420;2024-01-15T00:24:52;12.13;;;7.60;;
75167;SDS011;73507;52.510;13.420;2024-01-15T00:27:18;14.55;;;7.43;;
75167;SDS011;73507;52.510;13.420;2024-01-15T00:29:44;11.63;;;5.25;;
75167;SDS011;73507;52.510;13.420;2024-01-15T00:32:10;13.65;;;7.53;;
75167;SDS011;73507;52.510;13.420;2024-01-15T00:34:36;12.40;;;8.18;;
75167;SDS011;73507;52.510;13.420;2024-01-15T00:37:02;9.10;;;4.40;;
75167;SDS011;73507;52.510;13.420;2024-01-15T00:39:32;8.85;;;5.03;;
75167;SDS011;73507;52.510;13.420;2024-01-15T00:41:58;12.85;;;7.38;;
75167;SDS011;73507;52.510;13.420;2024-01-15T00:44:24;12.02;;;6.93;;
75167;SDS011;73507;52.510;13.420;2024-01-15T00:46:50;14.43;;;9.23;;
75167;SDS011;73507;52.510;13.420;2024-01-15T00:49:16;15.43;;;8.05;;
75167;SDS011;73507;52.510;13.420;2024-01-15T00:51:43;14.18;;;10.02;;
75167;SDS011;73507;52.510;13.420;2024-01-15T00:54:09;18.63;;;10.35;;
75167;SDS011;73507;52.510;13.420;2024-01-15T00:56:36;14.93;;;7.90;;
75167;SDS011;73507;52.510;13.420;2024-01-15T00:59:02;7.80;;;4.28;;
75167;SDS011;73507;52.510;13.420;2024-01-15T01:01:28;7.78;;;3.92;;
75167;SDS011;73507;52.510;13.420;2024-01-15T01:03:55;15.77;;;7.75;;
75167;SDS011;73507;52.510;13.420;2024-01-15T01:06:21;9.23;;;5.05;;
75167;SDS011;73507;52.510;13.420;2024-01-15T01:08:47;9.75;;;5.03;;
75167;SDS011;73507;52.510;13.420;2024-01-15T01:11:14;13.95;;;7.88;;
75167;SDS011;73507;52.510;13.420;2024-01-15T01:13:40;14.50;;;8.68;;
75167;SDS011;73507;52.510;13.420;2024-01-15T01:16:06;12.73;;;7.30;;
75167;SDS011;73507;52.510;13.420;2024-01-15T01:18:32;15.55;;;8.45;;
75167;SDS011;73507;52.510;13.420;2024-01-15T01:20:58;13.07;;;5.72;;
75167;SDS011;73507;52.510;13.420;2024-01-15T01:23:25;14.45;;;7.18;;
75167;SDS011;73507;52.510;13.420;2024-01-15T01:25:51;13.15;;;6.75;;
75167;SDS011;73507;52.510;13.420;2024-01-15T01:28:17;15.50;;;7.90;;
75167;SDS011;73507;52.510;13.420;2024-01-15T01:30:43;15.23;;;8.32;;
75167;SDS011;73507;52.510;13.420;2024-01-15T01:33:09;6.97;;;3.10;;
75167;SDS011;73507;52.510;13.420;2024-01-15T01:35:36;12.02;;;6.28;;
75167;SDS011;73507;52.510;13.420;2024-01-15T01:38:02;11.05;;;5.75;;
75167;SDS011;73507;52.510;13.420;2024-01-15T01:40:28;18.17;;;8.95;;
75167;SDS011;73507;52.510;13.420;2024-01-15T01:42:54;12.70;;;5.88;;
75167;SDS011;73507;52.510;13.420;2024-01-15T01:45:21;13.70;;;6.38;;
75167;SDS011;73507;52.510;13.420;2024-01-15T01:47:47;10.65;;;5.07;;
75167;SDS011;73507;52.510;13.420;2024-01-15T01:50:13;12.75;;;6.55;;
75167;SDS011;73507;52.510;13.420;2024-01-15T01:52:40;12.35;;;7.68;;
75167;SDS011;73507;52.510;13.420;2024-01-15T01:55:06;14.90;;;8.52;;
75167;SDS011;73507;52.510;13.420;2024-01-15T01:57:35;13.15;;;7.50;;
75167;SDS011;73507;52.510;13.420;2024-01-15T02:00:02;18.58;;;9.23;;
75167;SDS011;73507;52.510;13.420;2024-01-15T02:02:32;18.35;;;9.77;;
75167;SDS011;73507;52.510;13.420;2024-01-15T02:04:58;12.23;;;5.63;;
75167;SDS011;73507;52.510;13.420;2024-01-15T02:07:24;14.98;;;7.47;;
75167;SDS011;73507;52.510;13.420;2024-01-15T02:09:50;13.13;;;6.32;;
75167;SDS011;73507;52.510;13.420;2024-01-15T02:12:17;10.00;;;3.83;;
75167;SDS011;73507;52.510;13.420;2024-01-15T02:14:43;13.90;;;5.82;;
75167;SDS011;73507;52.510;13.420;2024-01-15T02:17:09;12.38;;;6.18;;
75167;SDS011;73507;52.510;13.420;2024-01-15T02:19:35;9.43;;;3.55;;
75167;SDS011;73507;52.510;13.420;2024-01-15T02:22:01;13.85;;;6.57;;
75167;SDS011;73507;52.510;13.420;2024-01-15T02:24:28;13.00;;;5.03;;
75167;SDS011;73507;52.510;13.420;2024-01-15T02:26:54;10.27;;;4.72;;
75167;SDS011;73507;52.510;13.420;2024-01-15T02:29:20;14.18;;;7.45;;
75167;SDS011;73507;52.510;13.420;2024-01-15T02:31:46;7.43;;;4.32;;
75167;SDS011;73507;52.510;13.420;2024-01-15T02:34:12;10.30;;;4.55;;
75167;SDS011;73507;52.510;13.420;2024-01-15T02:36:39;10.40;;;4.65;;
75167;SDS011;73507;52.510;13.420;2024-01-15T02:39:05;13.50;;;7.05;;
75167;SDS011;73507;52.510;13.420;2024-01-15T02:41:31;9.82;;;4.82;;
75167;SDS011;73507;52.510;13.420;2024-01-15T02:43:57;9.85;;;5.18;;
75167;SDS011;73507;52.510;13.420;2024-01-15T02:46:23;8.65;;;3.72;;
75167;SDS011;73507;52.510;13.420;2024-01-15T02:48:50;8.63;;;4.30;;
75167;SDS011;73507;52.510;13.420;2024-01-15T02:51:16;7.75;;;3.95;;
75167;SDS011;73507;52.510;13.420;2024-01-15T02:53:42;9.45;;;3.42;;
75167;SDS011;73507;52.510;13.420;2024-01-15T02:56:08;10.88;;;5.82;;
75167;SDS011;73507;52.510;13.420;2024-01-15T02:58:34;9.70;;;4.95;;
75167;SDS011;73507;52.510;13.420;2024-01-15T03:01:01;10.43;;;5.60;;
75167;SDS011;73507;52.510;13.420;2024-01-15T03:03:27;8.40;;;5.25;;
75167;SDS011;73507;52.510;13.420;2024-01-15T03:05:53;7.57;;;3.55;;
75167;SDS011;73507;52.510;13.420;2024-01-15T03:08:19;11.30;;;4.00;;
75167;SDS011;73507;52.510;13.420;2024-01-15T03:10:47;7.97;;;3.83;;
75167;SDS011;73507;52.510;13.420;2024-01-15T03:13:13;7.47;;;5.28;;
75167;SDS011;73507;52.510;13.420;2024-01-15T03:15:39;11.50;;;6.07;;
75167;SDS011;73507;52.510;13.420;2024-01-15T03:18:06;9.00;;;4.60;;
75167;SDS011;73507;52.510;13.420;2024-01-15T03:20:32;12.07;;;5.47;;
75167;SDS011;73507;52.510;13.420;2024-01-15T03:22:58;13.13;;;6.57;;
75167;SDS011;73507;52.510;13.420;2024-01-15T03:25:24;10.75;;;5.53;;
75167;SDS011;73507;52.510;13.420;2024-01-15T03:27:51;7.88;;;4.10;;
75167;SDS011;73507;52.510;13.420;2024-01-15T03:30:17;6.82;;;2.95;;
75167;SDS011;73507;52.510;13.420;2024-01-15T03:32:43;10.50;;;4.90;;
75167;SDS011;73507;52.510;13.420;2024-01-15T03:35:09;7.35;;;3.97;;
75167;SDS011;73507;52.510;13.420;2024-01-15T03:37:35;9.77;;;5.30;;
75167;SDS011;73507;52.510;13.420;2024-01-15T03:40:02;13.73;;;4.63;;
75167;SDS011;73507;52.510;13.420;2024-01-15T03:42:28;14.10;;;3.97;;
75167;SDS011;73507;52.510;13.420;2024-01-15T03:44:54;9.38;;;3.75;;
75167;SDS011;73507;52.510;13.420;2024-01-15T03:47:20;8.38;;;4.15;;
75167;SDS011;73507;52.510;13.420;2024-01-15T03:49:46;9.80;;;4.45;;
75167;SDS011;73507;52.510;13.420;2024-01-15T03:52:12;6.50;;;2.67;;
75167;SDS011;73507;52.510;13.420;2024-01-15T03:54:39;5.70;;;2.90;;
75167;SDS011;73507;52.510;13.420;2024-01-15T03:57:05;9.80;;;4.50;;
75167;SDS011;73507;52.510;13.420;2024-01-15T03:59:31;13.43;;;6.13;;
75167;SDS011;73507;52.510;13.420;2024-01-15T04:01:57;14.30;;;5.53;;
75167;SDS011;73507;52.510;13.420;2024-01-15T04:04:24;12.60;;;5.93;;
75167;SDS011;73507;52.510;13.420;2024-01-15T04:06:50;8.77;;;4.43;;
75167;SDS011;73507;52.510;13.420;2024-01-15T04:09:16;9.30;;;4.68;;
75167;SDS011;73507;52.510;13.420;2024-01-15T04:11:42;10.90;;;4.85;;
75167;SDS011;73507;52.510;13.420;2024-01-15T04:14:08;10.18;;;4.15;;
75167;SDS011;73507;52.510;13.420;2024-01-15T04:16:34;10.63;;;4.65;;
75167;SDS011;73507;52.510;13.420;2024-01-15T04:19:01;5.82;;;3.35;;
75167;SDS011;73507;52.510;13.420;2024-01-15T04:21:27;9.27;;;5.43;;
75167;SDS011;73507;52.510;13.420;2024-01-15T04:23:53;10.35;;;3.75;;
75167;SDS011;73507;52.510;13.420;2024-01-15T04:26:19;6.53;;;2.92;;
75167;SDS011;73507;52.510;13.420;2024-01-15T04:28:45;7.70;;;4.13;;
75167;SDS011;73507;52.510;13.420;2024-01-15T04:31:20;7.50;;;3.58;;
75167;SDS011;73507;52.510;13.420;2024-01-15T04:33:46;10.48;;;3.80;;
75167;SDS011;73507;52.510;13.420;2024-01-15T04:36:12;6.97;;;3.65;;
75167;SDS011;73507;52.510;13.420;2024-01-15T04:38:39;10.52;;;4.28;;
75167;SDS011;73507;52.510;13.420;2024-01-15T04:41:05;6.53;;;3.25;;
75167;SDS011;73507;52.510;13.420;2024-01-15T04:43:31;8.05;;;4.00;;
75167;SDS011;73507;52.510;13.420;2024-01-15T04:45:57;9.27;;;4.05;;
75167;SDS011;73507;52.510;13.420;2024-01-15T04:48:24;6.05;;;2.63;;
75167;SDS011;73507;52.510;13.420;2024-01-15T04:50:50;4.78;;;2.78;;
75167;SDS011;73507;52.510;13.420;2024-01-15T04:53:16;9.15;;;2.92;;
75167;SDS011;73507;52.510;13.420;2024-01-15T04:55:42;4.55;;;2.38;;
75167;SDS011;73507;52.510;13.420;2024-01-15T04:58:09;7.38;;;3.00;;
75167;SDS011;73507;52.510;13.420;2024-01-15T05:00:35;5.35;;;2.42;;
75167;SDS011;73507;52.510;13.420;2024-01-15T05:03:01;7.32;;;3.47;;
75167;SDS011;73507;52.510;13.420;2024-01-15T05:05:27;4.85;;;2.55;;
75167;SDS011;73507;52.510;13.420;2024-01-15T05:07:53;7.28;;;2.88;;
75167;SDS011;73507;52.510;13.420;2024-01-15T05:10:19;7.10;;;2.70;;
75167;SDS011;73507;52.510;13.420;2024-01-15T05:12:46;14.45;;;3.35;;
75167;SDS011;73507;52.510;13.420;2024-01-15T05:15:12;2.45;;;1.50;;
75167;SDS011;73507;52.510;13.420;2024-01-15T05:17:38;8.05;;;2.88;;
75167;SDS011;73507;52.510;13.420;2024-01-15T05:20:04;8.30;;;2.58;;
75167;SDS011;73507;52.510;13.420;2024-01-15T05:22:31;4.22;;;2.10;;
75167;SDS011;73507;52.510;13.420;2024-01-15T05:24:57;12.98;;;2.92;;
75167;SDS011;73507;52.510;13.420;2024-01-15T05:27:23;5.22;;;2.33;;
75167;SDS011;73507;52.510;13.420;2024-01-15T05:29:49;5.70;;;2.83;;
75167;SDS011;73507;52.510;13.420;2024-01-15T05:32:15;5.57;;;2.13;;
75167;SDS011;73507;52.510;13.420;2024-01-15T05:34:42;5.35;;;2.08;;
75167;SDS011;73507;52.510;13.420;2024-01-15T05:37:08;5.95;;;2.70;;
75167;SDS011;73507;52.510;13.420;2024-01-15T05:39:34;7.75;;;2.72;;
75167;SDS011;73507;52.510;13.420;2024-01-15T05:42:00;7.63;;;2.95;;
75167;SDS011;73507;52.510;13.420;2024-01-15T05:44:26;8.10;;;2.00;;
75167;SDS011;73507;52.510;13.420;2024-01-15T05:46:53;4.88;;;1.92;;
75167;SDS011;73507;52.510;13.420;2024-01-15T05:49:19;6.47;;;2.70;;
75167;SDS011;73507;52.510;13.420;2024-01-15T05:51:46;8.48;;;1.92;;
75167;SDS011;73507;52.510;13.420;2024-01-15T05:54:12;3.15;;;1.60;;
75167;SDS011;73507;52.510;13.420;2024-01-15T05:56:38;8.45;;;2.13;;
75167;SDS011;73507;52.510;13.420;2024-01-15T05:59:04;5.05;;;2.10;;
75167;SDS011;73507;52.510;13.420;2024-01-15T06:01:30;8.60;;;2.42;;
75167;SDS011;73507;52.510;13.420;2024-01-15T06:03:56;8.95;;;2.42;;
75167;SDS011;73507;52.510;13.420;2024-01-15T06:06:23;4.65;;;2.00;;
75167;SDS011;73507;52.510;13.420;2024-01-15T06:08:49;8.57;;;1.75;;
75167;SDS011;73507;52.510;13.420;2024-01-15T06:11:15;5.38;;;1.38;;
75167;SDS011;73507;52.510;13.420;2024-01-15T06:13:41;5.57;;;1.50;;
75167;SDS011;73507;52.510;13.420;2024-01-15T06:16:14;7.88;;;2.05;;
75167;SDS011;73507;52.510;13.420;2024-01-15T06:18:45;4.63;;;2.08;;
75167;SDS011;73507;52.510;13.420;2024-01-15T06:21:11;3.95;;;1.02;;
75167;SDS011;73507;52.510;13.420;2024-01-15T06:23:39;5.43;;;1.45;;
75167;SDS011;73507;52.510;13.420;2024-01-15T06:26:06;5.30;;;1.85;;
75167;SDS011;73507;52.510;13.420;2024-01-15T06:31:26;3.72;;;1.60;;
75167;SDS011;73507;52.510;13.420;2024-01-15T06:33:55;5.57;;;1.90;;
75167;SDS011;73507;52.510;13.420;2024-01-15T06:36:22;4.85;;;1.77;;
75167;SDS011;73507;52.510;13.420;2024-01-15T06:38:51;3.10;;;1.67;;
75167;SDS011;73507;52.510;13.420;2024-01-15T06:41:17;3.28;;;0.98;;
75167;SDS011;73507;52.510;13.420;2024-01-15T06:43:52;3.15;;;1.02;;
75167;SDS011;73507;52.510;13.420;2024-01-15T06:46:22;3.95;;;1.40;;
75167;SDS011;73507;52.510;13.420;2024-01-15T06:48:58;8.48;;;2.13;;
75167;SDS011;73507;52.510;13.420;2024-01-15T06:51:24;2.03;;;0.98;;
75167;SDS011;73507;52.510;13.420;2024-01-15T06:54:11;6.25;;;1.98;;
75167;SDS011;73507;52.510;13.420;2024-01-15T06:59:13;6.25;;;2.35;;
75167;SDS011;73507;52.510;13.420;2024-01-15T07:01:47;7.10;;;2.28;;
75167;SDS011;73507;52.510;13.420;2024-01-15T07:04:13;8.88;;;2.10;;
75167;SDS011;73507;52.510;13.420;2024-01-15T07:06:39;5.20;;;1.40;;
75167;SDS011;73507;52.510;13.420;2024-01-15T07:09:06;8.95;;;1.77;;
75167;SDS011;73507;52.510;13.420;2024-01-15T07:11:33;9.23;;;2.67;;
75167;SDS011;73507;52.510;13.420;2024-01-15T07:13:59;5.43;;;0.85;;
75167;SDS011;73507;52.510;13.420;2024-01-15T07:16:26;8.35;;;1.88;;
75167;SDS011;73507;52.510;13.420;2024-01-15T07:18:52;11.80;;;2.03;;
75167;SDS011;73507;52.510;13.420;2024-01-15T07:24:05;5.57;;;1.77;;
75167;SDS011;73507;52.510;13.420;2024-01-15T07:26:31;7.00;;;1.55;;
75167;SDS011;73507;52.510;13.420;2024-01-15T07:28:57;7.28;;;1.88;;
75167;SDS011;73507;52.510;13.420;2024-01-15T07:31:23;6.13;;;1.50;;
75167;SDS011;73507;52.510;13.420;2024-01-15T07:33:49;6.03;;;1.65;;
75167;SDS011;73507;52.510;13.420;2024-01-15T07:36:16;2.80;;;0.85;;
75167;SDS011;73507;52.510;13.420;2024-01-15T07:38:42;7.68;;;2.20;;
75167;SDS011;73507;52.510;13.420;2024-01-15T07:41:08;7.72;;;1.63;;
75167;SDS011;73507;52.510;13.420;2024-01-15T07:43:34;4.63;;;1.42;;
75167;SDS011;73507;52.510;13.420;2024-01-15T07:46:01;9.02;;;1.83;;
75167;SDS011;73507;52.510;13.420;2024-01-15T07:48:27;7.65;;;1.70;;
75167;SDS011;73507;52.510;13.420;2024-01-15T07:50:54;7.15;;;1.75;;
75167;SDS011;73507;52.510;13.420;2024-01-15T07:53:20;3.33;;;0.90;;
75167;SDS011;73507;52.510;13.420;2024-01-15T07:55:46;2.58;;;1.02;;
75167;SDS011;73507;52.510;13.420;2024-01-15T07:58:12;5.70;;;1.33;;
75167;SDS011;73507;52.510;13.420;2024-01-15T08:00:39;4.47;;;0.90;;
75167;SDS011;73507;52.510;13.420;2024-01-15T08:03:05;5.38;;;1.08;;
75167;SDS011;73507;52.510;13.420;2024-01-15T08:05:31;7.63;;;1.42;;
75167;SDS011;73507;52.510;13.420;2024-01-15T08:07:57;5.47;;;1.35;;
75167;SDS011;73507;52.510;13.420;2024-01-15T08:10:24;5.35;;;1.45;;
75167;SDS011;73507;52.510;13.420;2024-01-15T08:12:50;6.28;;;1.55;;
75167;SDS011;73507;52.510;13.420;2024-01-15T08:15:17;4.95;;;0.93;;
75167;SDS011;73507;52.510;13.420;2024-01-15T08:17:43;5.50;;;1.45;;
75167;SDS011;73507;52.510;13.420;2024-01-15T08:20:09;8.43;;;1.75;;
75167;SDS011;73507;52.510;13.420;2024-01-15T08:22:35;5.95;;;1.15;;
75167;SDS011;73507;52.510;13.420;2024-01-15T08:25:02;8.00;;;1.40;;
75167;SDS011;73507;52.510;13.420;2024-01-15T08:27:28;6.30;;;1.45;;
75167;SDS011;73507;52.510;13.420;2024-01-15T08:29:55;5.43;;;1.35;;
75167;SDS011;73507;52.510;13.420;2024-01-15T08:32:21;4.85;;;1.42;;
75167;SDS011;73507;52.510;13.420;2024-01-15T08:34:47;3.22;;;1.17;;
75167;SDS011;73507;52.510;13.420;2024-01-15T08:37:17;8.52;;;1.65;;
75167;SDS011;73507;52.510;13.420;2024-01-15T08:39:44;5.60;;;1.35;;
75167;SDS011;73507;52.510;13.420;2024-01-15T08:42:10;3.85;;;1.13;;
75167;SDS011;73507;52.510;13.420;2024-01-15T08:44:36;5.95;;;1.42;;
75167;SDS011;73507;52.510;13.420;2024-01-15T08:47:04;6.07;;;1.73;;
75167;SDS011;73507;52.510;13.420;2024-01-15T08:49:30;8.57;;;1.15;;
75167;SDS011;73507;52.510;13.420;2024-01-15T08:51:57;3.53;;;1.38;;
75167;SDS011;73507;52.510;13.420;2024-01-15T08:54:23;1.52;;;0.80;;
75167;SDS011;73507;52.510;13.420;2024-01-15T08:56:50;3.95;;;1.25;;
75167;SDS011;73507;52.510;13.420;2024-01-15T08:59:16;7.85;;;2.22;;
75167;SDS011;73507;52.510;13.420;2024-01-15T09:01:49;4.03;;;1.05;;
75167;SDS011;73507;52.510;13.420;2024-01-15T09:04:15;7.07;;;1.88;;
75167;SDS011;73507;52.510;13.420;2024-01-15T09:06:42;5.53;;;1.40;;
75167;SDS011;73507;52.510;13.420;2024-01-15T09:09:10;2.88;;;1.10;;
75167;SDS011;73507;52.510;13.420;2024-01-15T09:11:37;2.50;;;1.08;;
75167;SDS011;73507;52.510;13.420;2024-01-15T09:14:04;7.78;;;1.73;;
75167;SDS011;73507;52.510;13.420;2024-01-15T09:16:30;4.45;;;1.70;;
75167;SDS011;73507;52.510;13.420;2024-01-15T09:18:57;5.45;;;1.80;;
75167;SDS011;73507;52.510;13.420;2024-01-15T09:21:23;6.85;;;1.70;;
75167;SDS011;73507;52.510;13.420;2024-01-15T09:26:50;6.95;;;1.25;;
75167;SDS011;73507;52.510;13.420;2024-01-15T09:29:16;4.82;;;1.17;;
75167;SDS011;73507;52.510;13.420;2024-01-15T09:31:43;5.05;;;1.52;;
75167;SDS011;73507;52.510;13.420;2024-01-15T09:34:11;7.85;;;1.50;;
75167;SDS011;73507;52.510;13.420;2024-01-15T09:36:40;3.53;;;1.40;;
75167;SDS011;73507;52.510;13.420;2024-01-15T09:39:09;5.40;;;1.67;;
75167;SDS011;73507;52.510;13.420;2024-01-15T09:41:36;3.47;;;1.08;;
75167;SDS011;73507;52.510;13.420;2024-01-15T09:44:03;4.18;;;1.15;;
75167;SDS011;73507;52.510;13.420;2024-01-15T09:46:30;8.05;;;1.52;;
75167;SDS011;73507;52.510;13.420;2024-01-15T09:48:57;4.72;;;1.27;;
75167;SDS011;73507;52.510;13.420;2024-01-15T09:51:24;5.65;;;1.70;;
75167;SDS011;73507;52.510;13.420;2024-01-15T09:53:50;4.00;;;0.90;;
75167;SDS011;73507;52.510;13.420;2024-01-15T09:56:16;4.78;;;1.38;;
75167;SDS011;73507;52.510;13.420;2024-01-15T09:58:43;4.53;;;1.77;;
75167;SDS011;73507;52.510;13.420;2024-01-15T10:01:10;3.00;;;0.90;;
75167;SDS011;73507;52.510;13.420;2024-01-15T10:03:39;3.85;;;0.82;;
75167;SDS011;73507;52.510;13.420;2024-01-15T10:06:26;6.20;;;1.33;;
75167;SDS011;73507;52.510;13.420;2024-01-15T10:08:53;7.05;;;1.10;;
75167;SDS011;73507;52.510;13.420;2024-01-15T10:11:19;3.90;;;1.17;;
75167;SDS011;73507;52.510;13.420;2024-01-15T10:13:46;2.03;;;0.82;;
75167;SDS011;73507;52.510;13.420;2024-01-15T10:16:17;3.42;;;1.30;;
75167;SDS011;73507;52.510;13.420;2024-01-15T10:18:43;5.35;;;1.90;;
75167;SDS011;73507;52.510;13.420;2024-01-15T10:21:10;3.65;;;1.05;;
75167;SDS011;73507;52.510;13.420;2024-01-15T10:23:36;6.97;;;1.80;;
75167;SDS011;73507;52.510;13.420;2024-01-15T10:26:03;2.40;;;1.10;;
75167;SDS011;73507;52.510;13.420;2024-01-15T10:28:29;2.53;;;1.13;;
75167;SDS011;73507;52.510;13.420;2024-01-15T10:30:57;3.80;;;1.70;;
75167;SDS011;73507;52.510;13.420;2024-01-15T10:33:24;1.90;;;1.13;;
75167;SDS011;73507;52.510;13.420;2024-01-15T10:35:53;3.00;;;1.38;;
75167;SDS011;73507;52.510;13.420;2024-01-15T10:38:20;3.55;;;1.35;;
75167;SDS011;73507;52.510;13.420;2024-01-15T10:40:52;2.80;;;1.17;;
75167;SDS011;73507;52.510;13.420;2024-01-15T10:43:19;4.93;;;2.20;;
75167;SDS011;73507;52.510;13.420;2024-01-15T10:45:46;3.88;;;1.45;;
75167;SDS011;73507;52.510;13.420;2024-01-15T10:48:12;3.25;;;1.35;;
75167;SDS011;73507;52.510;13.420;2024-01-15T10:50:39;4.40;;;1.02;;
75167;SDS011;73507;52.510;13.420;2024-01-15T10:53:05;2.85;;;1.48;;
75167;SDS011;73507;52.510;13.420;2024-01-15T10:55:34;2.35;;;1.05;;
75167;SDS011;73507;52.510;13.420;2024-01-15T10:58:01;2.15;;;0.80;;
75167;SDS011;73507;52.510;13.420;2024-01-15T11:00:29;1.02;;;0.60;;
75167;SDS011;73507;52.510;13.420;2024-01-15T11:02:55;3.38;;;1.30;;
75167;SDS011;73507;52.510;13.420;2024-01-15T11:05:22;1.92;;;0.55;;
75167;SDS011;73507;52.510;13.420;2024-01-15T11:07:54;3.60;;;1.17;;
75167;SDS011;73507;52.510;13.420;2024-01-15T11:13:14;2.70;;;0.90;;
75167;SDS011;73507;52.510;13.420;2024-01-15T11:15:56;2.00;;;1.15;;
75167;SDS011;73507;52.510;13.420;2024-01-15T11:18:23;1.73;;;0.75;;
75167;SDS011;73507;52.510;13.420;2024-01-15T11:23:48;5.47;;;0.98;;
75167;SDS011;73507;52.510;13.420;2024-01-15T11:26:27;3.78;;;0.68;;
75167;SDS011;73507;52.510;13.420;2024-01-15T11:28:56;2.85;;;1.23;;
75167;SDS011;73507;52.510;13.420;2024-01-15T11:31:29;2.63;;;1.00;;
75167;SDS011;73507;52.510;13.420;2024-01-15T11:33:56;2.65;;;0.90;;
75167;SDS011;73507;52.510;13.420;2024-01-15T11:41:59;2.13;;;0.63;;
75167;SDS011;73507;52.510;13.420;2024-01-15T11:44:26;1.35;;;0.75;;
75167;SDS011;73507;52.510;13.420;2024-01-15T11:46:59;2.03;;;0.93;;
75167;SDS011;73507;52.510;13.420;2024-01-15T11:52:13;2.67;;;1.27;;
75167;SDS011;73507;52.510;13.420;2024-01-15T11:54:41;1.73;;;0.88;;
75167;SDS011;73507;52.510;13.420;2024-01-15T11:57:10;0.60;;;0.45;;
75167;SDS011;73507;52.510;13.420;2024-01-15T11:59:39;2.25;;;1.10;;
75167;SDS011;73507;52.510;13.420;2024-01-15T12:02:05;4.20;;;1.27;;
75167;SDS011;73507;52.510;13.420;2024-01-15T12:04:32;1.40;;;1.02;;
75167;SDS011;73507;52.510;13.420;2024-01-15T12:06:58;1.13;;;0.70;;
75167;SDS011;73507;52.510;13.420;2024-01-15T12:09:24;3.58;;;1.45;;
75167;SDS011;73507;52.510;13.420;2024-01-15T12:11:55;3.83;;;0.93;;
75167;SDS011;73507;52.510;13.420;2024-01-15T12:14:24;3.17;;;1.38;;
75167;SDS011;73507;52.510;13.420;2024-01-15T12:16:52;2.22;;;1.48;;
75167;SDS011;73507;52.510;13.420;2024-01-15T12:19:19;1.00;;;0.80;;
75167;SDS011;73507;52.510;13.420;2024-01-15T12:21:45;2.95;;;1.20;;
75167;SDS011;73507;52.510;13.420;2024-01-15T12:24:12;1.10;;;0.63;;
75167;SDS011;73507;52.510;13.420;2024-01-15T12:26:38;1.55;;;1.13;;
75167;SDS011;73507;52.510;13.420;2024-01-15T12:29:06;2.08;;;1.08;;
75167;SDS011;73507;52.510;13.420;2024-01-15T12:31:32;1.38;;;0.85;;
75167;SDS011;73507;52.510;13.420;2024-01-15T12:33:58;1.40;;;0.88;;
75167;SDS011;73507;52.510;13.420;2024-01-15T12:36:24;2.95;;;1.30;;
75167;SDS011;73507;52.510;13.420;2024-01-15T12:38:52;2.65;;;1.23;;
75167;SDS011;73507;52.510;13.420;2024-01-15T12:44:03;1.65;;;1.45;;
75167;SDS011;73507;52.510;13.420;2024-01-15T12:46:30;2.30;;;1.10;;
75167;SDS011;73507;52.510;13.420;2024-01-15T12:48:56;1.70;;;0.88;;
75167;SDS011;73507;52.510;13.420;2024-01-15T12:51:26;4.30;;;1.35;;
75167;SDS011;73507;52.510;13.420;2024-01-15T12:53:52;1.35;;;0.90;;
75167;SDS011;73507;52.510;13.420;2024-01-15T12:56:19;2.30;;;0.95;;
75167;SDS011;73507;52.510;13.420;2024-01-15T12:58:45;1.70;;;0.82;;
75167;SDS011;73507;52.510;13.420;2024-01-15T13:01:12;1.85;;;0.95;;
75167;SDS011;73507;52.510;13.420;2024-01-15T13:03:38;3.47;;;0.93;;
75167;SDS011;73507;52.510;13.420;2024-01-15T13:06:04;0.98;;;0.73;;
75167;SDS011;73507;52.510;13.420;2024-01-15T13:08:30;2.15;;;1.10;;
75167;SDS011;73507;52.510;13.420;2024-01-15T13:10:57;0.80;;;0.60;;
75167;SDS011;73507;52.510;13.420;2024-01-15T13:13:23;3.17;;;1.35;;
75167;SDS011;73507;52.510;13.420;2024-01-15T13:15:49;1.08;;;0.73;;
75167;SDS011;73507;52.510;13.420;2024-01-15T13:18:15;3.22;;;1.17;;
75167;SDS011;73507;52.510;13.420;2024-01-15T13:20:42;0.88;;;0.50;;
75167;SDS011;73507;52.510;13.420;2024-01-15T13:23:08;1.73;;;1.15;;
75167;SDS011;73507;52.510;13.420;2024-01-15T13:25:35;1.90;;;0.93;;
75167;SDS011;73507;52.510;13.420;2024-01-15T13:28:03;1.10;;;0.90;;
75167;SDS011;73507;52.510;13.420;2024-01-15T13:30:30;3.30;;;1.77;;
75167;SDS011;73507;52.510;13.420;2024-01-15T13:32:57;2.70;;;0.90;;
75167;SDS011;73507;52.510;13.420;2024-01-15T13:35:29;3.35;;;1.63;;
75167;SDS011;73507;52.510;13.420;2024-01-15T13:37:56;2.50;;;0.82;;
75167;SDS011;73507;52.510;13.420;2024-01-15T13:40:22;1.05;;;0.90;;
75167;SDS011;73507;52.510;13.420;2024-01-15T13:42:50;0.98;;;0.65;;
75167;SDS011;73507;52.510;13.420;2024-01-15T13:45:18;3.42;;;0.65;;
75167;SDS011;73507;52.510;13.420;2024-01-15T13:47:48;1.92;;;0.93;;
75167;SDS011;73507;52.510;13.420;2024-01-15T13:50:14;1.05;;;0.80;;
75167;SDS011;73507;52.510;13.420;2024-01-15T13:55:35;7.47;;;1.33;;
75167;SDS011;73507;52.510;13.420;2024-01-15T13:58:01;1.25;;;0.47;;
75167;SDS011;73507;52.510;13.420;2024-01-15T14:00:31;2.13;;;0.98;;
75167;SDS011;73507;52.510;13.420;2024-01-15T14:02:57;2.17;;;0.70;;
75167;SDS011;73507;52.510;13.420;2024-01-15T14:05:23;2.72;;;1.20;;
75167;SDS011;73507;52.510;13.420;2024-01-15T14:07:52;1.40;;;0.68;;
75167;SDS011;73507;52.510;13.420;2024-01-15T14:10:19;1.05;;;0.60;;
75167;SDS011;73507;52.510;13.420;2024-01-15T14:12:45;1.92;;;1.15;;
75167;SDS011;73507;52.510;13.420;2024-01-15T14:15:12;5.22;;;1.42;;
75167;SDS011;73507;52.510;13.420;2024-01-15T14:17:38;4.07;;;0.95;;
75167;SDS011;73507;52.510;13.420;2024-01-15T14:20:04;3.17;;;1.60;;
75167;SDS011;73507;52.510;13.420;2024-01-15T14:22:34;3.53;;;0.52;;
75167;SDS011;73507;52.510;13.420;2024-01-15T14:25:00;1.10;;;0.73;;
75167;SDS011;73507;52.510;13.420;2024-01-15T14:27:32;1.85;;;0.55;;
75167;SDS011;73507;52.510;13.420;2024-01-15T14:29:58;1.90;;;0.88;;
75167;SDS011;73507;52.510;13.420;2024-01-15T14:32:25;0.57;;;0.57;;
75167;SDS011;73507;52.510;13.420;2024-01-15T14:34:51;2.25;;;0.90;;
75167;SDS011;73507;52.510;13.420;2024-01-15T14:37:17;4.45;;;0.63;;
75167;SDS011;73507;52.510;13.420;2024-01-15T14:39:44;1.30;;;0.35;;
75167;SDS011;73507;52.510;13.420;2024-01-15T14:42:10;1.38;;;0.80;;
75167;SDS011;73507;52.510;13.420;2024-01-15T14:44:36;0.68;;;0.40;;
75167;SDS011;73507;52.510;13.420;2024-01-15T14:47:04;1.30;;;1.00;;
75167;SDS011;73507;52.510;13.420;2024-01-15T14:49:30;1.20;;;0.57;;
75167;SDS011;73507;52.510;13.420;2024-01-15T14:51:57;1.30;;;0.70;;
75167;SDS011;73507;52.510;13.420;2024-01-15T14:54:23;1.90;;;1.35;;
75167;SDS011;73507;52.510;13.420;2024-01-15T14:56:49;2.55;;;1.02;;
75167;SDS011;73507;52.510;13.420;2024-01-15T14:59:16;4.93;;;1.25;;